sensor_id;sensor_type;location;lat;lon;timestamp;pressure;altitude;pressure_sealevel;temperature;humidity
24230;BME280;12362;50.004;8.006;2023-02-02T00:01:22;101088.69;;;7.85;100.00
24230;BME280;12362;50.004;8.006;2023-02-02T00:03:48;101083.31;;;7.93;100.00
24230;BME280;12362;50.004;8.006;2023-02-02T00:06:16;101073.97;;;7.87;100.00
24230;BME280;12362;50.004;8.006;2023-02-02T00:08:42;101077.41;;;7.88;100.00
24230;BME280;12362;50.004;8.006;2023-02-02T00:11:08;101077.66;;;7.79;100.00
24230;BME280;12362;50.004;8.006;2023-02-02T00:13:33;101077.41;;;7.88;100.00
24230;BME280;12362;50.004;8.006;2023-02-02T00:16:20;101069.75;;;7.83;100.00
24230;BME280;12362;50.004;8.006;2023-02-02T00:18:45;101074.72;;;7.91;100.00
24230;BME280;12362;50.004;8.006;2023-02-02T00:21:11;101070.44;;;7.90;100.00
24230;BME280;12362;50.004;8.006;2023-02-02T00:23:36;101077.53;;;7.83;100.00
24230;BME280;12362;50.004;8.006;2023-02-02T00:26:02;101090.72;;;7.73;100.00
24230;BME280;12362;50.004;8.006;2023-02-02T00:28:27;101095.88;;;7.74;100.00
24230;BME280;12362;50.004;8.006;2023-02-02T00:30:53;101090.16;;;7.62;100.00
24230;BME280;12362;50.004;8.006;2023-02-02T00:33:18;101092.09;;;7.54;100.00
24230;BME280;12362;50.004;8.006;2023-02-02T00:35:43;101093.75;;;7.56;100.00
24230;BME280;12362;50.004;8.006;2023-02-02T00:38:09;101094.56;;;7.58;100.00
24230;BME280;12362;50.004;8.006;2023-02-02T00:40:34;101096.19;;;7.62;100.00
24230;BME280;12362;50.004;8.006;2023-02-02T00:43:00;101086.00;;;7.56;100.00
24230;BME280;12362;50.004;8.006;2023-02-02T00:45:25;101090.31;;;7.56;100.00
24230;BME280;12362;50.004;8.006;2023-02-02T00:47:51;101094.56;;;7.58;100.00
24230;BME280;12362;50.004;8.006;2023-02-02T00:50:18;101086.81;;;7.58;100.00
24230;BME280;12362;50.004;8.006;2023-02-02T00:52:46;101097.13;;;7.58;100.00
24230;BME280;12362;50.004;8.006;2023-02-02T00:55:12;101097.13;;;7.58;100.00
24230;BME280;12362;50.004;8.006;2023-02-02T00:57:39;101094.50;;;7.60;100.00
24230;BME280;12362;50.004;8.006;2023-02-02T01:00:07;101090.50;;;7.48;100.00
24230;BME280;12362;50.004;8.006;2023-02-02T01:02:34;101105.25;;;7.43;100.00
24230;BME280;12362;50.004;8.006;2023-02-02T01:05:00;101108.53;;;7.51;100.00
24230;BME280;12362;50.004;8.006;2023-02-02T01:07:25;101095.63;;;7.50;100.00
24230;BME280;12362;50.004;8.006;2023-02-02T01:09:51;101092.22;;;7.48;100.00
24230;BME280;12362;50.004;8.006;2023-02-02T01:12:16;101092.41;;;7.42;100.00
24230;BME280;12362;50.004;8.006;2023-02-02T01:14:42;101098.50;;;7.39;100.00
24230;BME280;12362;50.004;8.006;2023-02-02T01:17:07;101100.25;;;7.37;100.00
24230;BME280;12362;50.004;8.006;2023-02-02T01:19:33;101101.03;;;7.41;100.00
24230;BME280;12362;50.004;8.006;2023-02-02T01:21:58;101102.53;;;7.49;100.00
24230;BME280;12362;50.004;8.006;2023-02-02T01:24:24;101096.44;;;7.52;100.00
24230;BME280;12362;50.004;8.006;2023-02-02T01:26:49;101097.19;;;7.57;100.00
24230;BME280;12362;50.004;8.006;2023-02-02T01:29:18;101103.06;;;7.63;100.00
24230;BME280;12362;50.004;8.006;2023-02-02T01:31:46;101108.13;;;7.66;100.00
24230;BME280;12362;50.004;8.006;2023-02-02T01:34:11;101105.34;;;7.74;100.00
24230;BME280;12362;50.004;8.006;2023-02-02T01:36:37;101103.81;;;7.67;100.00
24230;BME280;12362;50.004;8.006;2023-02-02T01:39:02;101111.44;;;7.71;100.00
24230;BME280;12362;50.004;8.006;2023-02-02T01:41:28;101113.09;;;7.74;100.00
24230;BME280;12362;50.004;8.006;2023-02-02T01:44:01;101109.69;;;7.72;100.00
24230;BME280;12362;50.004;8.006;2023-02-02T01:46:31;101105.34;;;7.74;100.00
24230;BME280;12362;50.004;8.006;2023-02-02T01:49:13;101104.44;;;7.75;100.00
24230;BME280;12362;50.004;8.006;2023-02-02T01:54:12;101111.97;;;7.84;100.00
24230;BME280;12362;50.004;8.006;2023-02-02T01:56:42;101111.13;;;7.83;100.00
24230;BME280;12362;50.004;8.006;2023-02-02T01:59:13;101112.09;;;7.79;100.00
24230;BME280;12362;50.004;8.006;2023-02-02T02:01:40;101110.50;;;7.74;100.00
24230;BME280;12362;50.004;8.006;2023-02-02T02:04:05;101108.38;;;7.89;100.00
24230;BME280;12362;50.004;8.006;2023-02-02T02:06:32;101112.53;;;7.95;100.00
24230;BME280;12362;50.004;8.006;2023-02-02T02:09:02;101115.16;;;7.93;100.00
24230;BME280;12362;50.004;8.006;2023-02-02T02:11:29;101118.00;;;7.83;100.00
24230;BME280;12362;50.004;8.006;2023-02-02T02:13:56;101116.41;;;7.79;100.00
24230;BME280;12362;50.004;8.006;2023-02-02T02:34:47;101115.09;;;7.96;100.00
24230;BME280;12362;50.004;8.006;2023-02-02T02:37:25;101114.16;;;7.99;100.00
24230;BME280;12362;50.004;8.006;2023-02-02T02:40:00;101109.19;;;7.91;100.00
24230;BME280;12362;50.004;8.006;2023-02-02T02:42:30;101111.75;;;7.91;100.00
24230;BME280;12362;50.004;8.006;2023-02-02T02:45:01;101116.84;;;7.94;100.00
24230;BME280;12362;50.004;8.006;2023-02-02T02:47:29;101116.28;;;7.83;100.00
24230;BME280;12362;50.004;8.006;2023-02-02T02:49:55;101111.97;;;7.84;100.00
24230;BME280;12362;50.004;8.006;2023-02-02T02:52:21;101108.50;;;7.85;100.00
24230;BME280;12362;50.004;8.006;2023-02-02T02:54:52;101117.13;;;7.84;100.00
24230;BME280;12362;50.004;8.006;2023-02-02T03:00:44;101124.00;;;7.85;100.00
24230;BME280;12362;50.004;8.006;2023-02-02T03:05:58;101113.25;;;8.00;100.00
24230;BME280;12362;50.004;8.006;2023-02-02T03:08:33;101116.66;;;8.02;100.00
24230;BME280;12362;50.004;8.006;2023-02-02T03:11:03;101114.06;;;8.02;100.00
24230;BME280;12362;50.004;8.006;2023-02-02T03:13:31;101105.31;;;8.06;100.00
24230;BME280;12362;50.004;8.006;2023-02-02T03:15:56;101114.22;;;7.96;100.00
24230;BME280;12362;50.004;8.006;2023-02-02T03:18:26;101110.94;;;7.89;100.00
24230;BME280;12362;50.004;8.006;2023-02-02T03:20:52;101097.94;;;7.92;100.00
24230;BME280;12362;50.004;8.006;2023-02-02T03:23:18;101101.41;;;7.93;100.00
24230;BME280;12362;50.004;8.006;2023-02-02T03:25:43;101112.66;;;7.90;100.00
24230;BME280;12362;50.004;8.006;2023-02-02T03:28:13;101102.28;;;7.92;100.00
24230;BME280;12362;50.004;8.006;2023-02-02T03:30:40;101110.06;;;7.90;100.00
24230;BME280;12362;50.004;8.006;2023-02-02T03:33:09;101114.97;;;8.01;100.00
24230;BME280;12362;50.004;8.006;2023-02-02T03:35:35;101107.03;;;8.07;100.00
24230;BME280;12362;50.004;8.006;2023-02-02T03:38:00;101110.59;;;8.03;100.00
24230;BME280;12362;50.004;8.006;2023-02-02T03:40:27;101103.72;;;8.02;100.00
24230;BME280;12362;50.004;8.006;2023-02-02T03:42:52;101111.63;;;7.96;100.00
24230;BME280;12362;50.004;8.006;2023-02-02T03:45:18;101110.00;;;7.93;100.00
24230;BME280;12362;50.004;8.006;2023-02-02T03:47:43;101111.63;;;7.96;100.00
24230;BME280;12362;50.004;8.006;2023-02-02T03:50:09;101113.47;;;7.92;100.00
24230;BME280;12362;50.004;8.006;2023-02-02T03:52:34;101110.94;;;7.89;100.00
24230;BME280;12362;50.004;8.006;2023-02-02T03:55:00;101118.72;;;7.89;100.00
24230;BME280;12362;50.004;8.006;2023-02-02T03:57:25;101114.41;;;7.90;100.00
24230;BME280;12362;50.004;8.006;2023-02-02T03:59:51;101113.72;;;7.83;100.00
24230;BME280;12362;50.004;8.006;2023-02-02T04:02:16;101119.88;;;7.78;100.00
24230;BME280;12362;50.004;8.006;2023-02-02T04:04:42;101125.78;;;7.83;100.00
24230;BME280;12362;50.004;8.006;2023-02-02T04:07:07;101132.63;;;7.84;100.00
24230;BME280;12362;50.004;8.006;2023-02-02T04:09:33;101130.84;;;7.87;100.00
24230;BME280;12362;50.004;8.006;2023-02-02T04:11:58;101135.22;;;7.85;100.00
24230;BME280;12362;50.004;8.006;2023-02-02T04:14:24;101135.03;;;7.91;100.00
24230;BME280;12362;50.004;8.006;2023-02-02T04:16:50;101135.91;;;7.92;100.00
24230;BME280;12362;50.004;8.006;2023-02-02T04:19:15;101135.78;;;7.95;100.00
24230;BME280;12362;50.004;8.006;2023-02-02T04:21:41;101137.34;;;8.02;100.00
24230;BME280;12362;50.004;8.006;2023-02-02T04:24:10;101137.34;;;8.02;100.00
24230;BME280;12362;50.004;8.006;2023-02-02T04:26:35;101134.03;;;7.97;100.00
24230;BME280;12362;50.004;8.006;2023-02-02T04:29:07;101145.31;;;7.94;100.00
24230;BME280;12362;50.004;8.006;2023-02-02T04:31:33;101142.47;;;8.03;100.00
24230;BME280;12362;50.004;8.006;2023-02-02T04:33:59;101146.94;;;7.97;100.00
24230;BME280;12362;50.004;8.006;2023-02-02T04:36:25;101151.28;;;7.96;100.00
24230;BME280;12362;50.004;8.006;2023-02-02T04:38:51;101154.69;;;7.97;100.00
24230;BME280;12362;50.004;8.006;2023-02-02T04:41:18;101154.69;;;7.98;100.00
24230;BME280;12362;50.004;8.006;2023-02-02T04:43:44;101153.63;;;8.05;100.00
24230;BME280;12362;50.004;8.006;2023-02-02T04:46:10;101148.44;;;8.05;100.00
24230;BME280;12362;50.004;8.006;2023-02-02T04:48:40;101163.22;;;8.00;100.00
24230;BME280;12362;50.004;8.006;2023-02-02T04:51:14;101158.16;;;7.97;100.00
24230;BME280;12362;50.004;8.006;2023-02-02T04:53:40;101163.22;;;8.02;100.00
24230;BME280;12362;50.004;8.006;2023-02-02T04:56:17;101156.91;;;8.11;100.00
24230;BME280;12362;50.004;8.006;2023-02-02T04:59:16;101155.91;;;8.17;100.00
24230;BME280;12362;50.004;8.006;2023-02-02T05:01:42;101164.72;;;8.10;100.00
24230;BME280;12362;50.004;8.006;2023-02-02T05:04:09;101161.91;;;8.17;100.00
24230;BME280;12362;50.004;8.006;2023-02-02T05:06:35;101161.13;;;8.15;100.00
24230;BME280;12362;50.004;8.006;2023-02-02T05:09:00;101158.91;;;8.01;100.00
24230;BME280;12362;50.004;8.006;2023-02-02T05:11:26;101161.50;;;8.01;100.00
24230;BME280;12362;50.004;8.006;2023-02-02T05:13:53;101166.78;;;7.96;100.00
24230;BME280;12362;50.004;8.006;2023-02-02T05:16:19;101165.09;;;7.95;100.00
24230;BME280;12362;50.004;8.006;2023-02-02T05:18:49;101171.09;;;7.97;100.00
24230;BME280;12362;50.004;8.006;2023-02-02T05:21:15;101177.16;;;7.96;100.00
24230;BME280;12362;50.004;8.006;2023-02-02T05:23:41;101177.25;;;7.92;100.00
24230;BME280;12362;50.004;8.006;2023-02-02T05:26:06;101184.72;;;8.04;100.00
24230;BME280;12362;50.004;8.006;2023-02-02T05:28:34;101183.66;;;8.10;100.00
24230;BME280;12362;50.004;8.006;2023-02-02T05:31:04;101182.84;;;8.08;100.00
24230;BME280;12362;50.004;8.006;2023-02-02T05:33:30;101178.72;;;8.02;100.00
24230;BME280;12362;50.004;8.006;2023-02-02T05:35:56;101191.66;;;8.00;100.00
24230;BME280;12362;50.004;8.006;2023-02-02T05:38:22;101179.66;;;7.99;100.00
24230;BME280;12362;50.004;8.006;2023-02-02T05:40:48;101175.25;;;8.03;100.00
24230;BME280;12362;50.004;8.006;2023-02-02T05:43:13;101174.44;;;8.01;100.00
24230;BME280;12362;50.004;8.006;2023-02-02T05:45:39;101189.91;;;8.02;100.00
24230;BME280;12362;50.004;8.006;2023-02-02T05:48:05;101176.91;;;8.05;100.00
24230;BME280;12362;50.004;8.006;2023-02-02T05:50:31;101187.31;;;8.02;100.00
24230;BME280;12362;50.004;8.006;2023-02-02T05:53:02;101184.66;;;8.05;100.00
24230;BME280;12362;50.004;8.006;2023-02-02T05:55:28;101198.53;;;8.01;100.00
24230;BME280;12362;50.004;8.006;2023-02-02T05:57:53;101199.44;;;8.00;100.00
24230;BME280;12362;50.004;8.006;2023-02-02T06:00:20;101206.28;;;8.03;100.00
24230;BME280;12362;50.004;8.006;2023-02-02T06:02:46;101198.47;;;8.04;100.00
24230;BME280;12362;50.004;8.006;2023-02-02T06:05:11;101201.19;;;8.00;100.00
24230;BME280;12362;50.004;8.006;2023-02-02T06:07:40;101203.00;;;7.95;100.00
24230;BME280;12362;50.004;8.006;2023-02-02T06:10:12;101203.75;;;8.00;100.00
24230;BME280;12362;50.004;8.006;2023-02-02T06:12:38;101205.59;;;7.96;100.00
24230;BME280;12362;50.004;8.006;2023-02-02T06:15:04;101203.88;;;7.95;100.00
24230;BME280;12362;50.004;8.006;2023-02-02T06:17:30;101216.75;;;7.97;100.00
24230;BME280;12362;50.004;8.006;2023-02-02T06:19:56;101224.44;;;8.00;100.00
24230;BME280;12362;50.004;8.006;2023-02-02T06:22:22;101223.50;;;8.02;100.00
24230;BME280;12362;50.004;8.006;2023-02-02T06:24:47;101219.91;;;8.07;100.00
24230;BME280;12362;50.004;8.006;2023-02-02T06:27:13;101213.03;;;8.07;100.00
24230;BME280;12362;50.004;8.006;2023-02-02T06:29:38;101216.22;;;8.19;100.00
24230;BME280;12362;50.004;8.006;2023-02-02T06:32:04;101221.63;;;8.08;100.00
24230;BME280;12362;50.004;8.006;2023-02-02T06:34:29;101221.69;;;8.06;100.00
24230;BME280;12362;50.004;8.006;2023-02-02T06:36:55;101212.03;;;8.13;100.00
24230;BME280;12362;50.004;8.006;2023-02-02T06:39:21;101207.81;;;8.09;100.00
24230;BME280;12362;50.004;8.006;2023-02-02T06:41:46;101207.66;;;8.17;100.00
24230;BME280;12362;50.004;8.006;2023-02-02T06:44:13;101211.88;;;8.21;100.00
24230;BME280;12362;50.004;8.006;2023-02-02T06:46:40;101217.22;;;8.12;100.00
24230;BME280;12362;50.004;8.006;2023-02-02T06:49:05;101216.31;;;8.13;100.00
24230;BME280;12362;50.004;8.006;2023-02-02T06:51:31;101218.91;;;8.13;100.00
24230;BME280;12362;50.004;8.006;2023-02-02T06:53:59;101211.28;;;8.08;100.00
24230;BME280;12362;50.004;8.006;2023-02-02T06:56:24;101205.97;;;8.13;100.00
24230;BME280;12362;50.004;8.006;2023-02-02T06:58:50;101216.38;;;8.11;100.00
24230;BME280;12362;50.004;8.006;2023-02-02T07:01:16;101230.19;;;8.10;100.00
24230;BME280;12362;50.004;8.006;2023-02-02T07:03:41;101232.78;;;8.10;100.00
24230;BME280;12362;50.004;8.006;2023-02-02T07:06:19;101231.84;;;8.13;100.00
24230;BME280;12362;50.004;8.006;2023-02-02T07:08:51;101239.53;;;8.17;100.00
24230;BME280;12362;50.004;8.006;2023-02-02T07:11:27;101234.25;;;8.22;100.00
24230;BME280;12362;50.004;8.006;2023-02-02T07:13:56;101236.75;;;8.25;100.00
24230;BME280;12362;50.004;8.006;2023-02-02T07:16:28;101245.31;;;8.27;100.00
24230;BME280;12362;50.004;8.006;2023-02-02T07:19:15;101240.91;;;8.30;100.00
24230;BME280;12362;50.004;8.006;2023-02-02T07:22:31;101241.78;;;8.31;100.00
24230;BME280;12362;50.004;8.006;2023-02-02T07:25:21;101247.22;;;8.20;100.00
24230;BME280;12362;50.004;8.006;2023-02-02T07:27:58;101252.44;;;8.19;100.00
24230;BME280;12362;50.004;8.006;2023-02-02T07:43:21;101275.34;;;8.34;100.00
24230;BME280;12362;50.004;8.006;2023-02-02T07:47:33;101265.00;;;8.32;100.00
24230;BME280;12362;50.004;8.006;2023-02-02T07:50:51;101258.00;;;8.37;100.00
24230;BME280;12362;50.004;8.006;2023-02-02T07:54:08;101248.66;;;8.32;100.00
24230;BME280;12362;50.004;8.006;2023-02-02T07:56:39;101247.00;;;8.28;100.00
24230;BME280;12362;50.004;8.006;2023-02-02T07:59:24;101256.47;;;8.29;100.00
24230;BME280;12362;50.004;8.006;2023-02-02T08:02:48;101265.06;;;8.29;100.00
24230;BME280;12362;50.004;8.006;2023-02-02T08:05:20;101262.47;;;8.31;100.00
24230;BME280;12362;50.004;8.006;2023-02-02T08:08:05;101262.22;;;8.40;100.00
24230;BME280;12362;50.004;8.006;2023-02-02T08:10:47;101263.81;;;8.45;100.00
24230;BME280;12362;50.004;8.006;2023-02-02T08:16:43;101251.50;;;8.53;100.00
24230;BME280;12362;50.004;8.006;2023-02-02T08:19:10;101253.16;;;8.56;100.00
24230;BME280;12362;50.004;8.006;2023-02-02T08:21:58;101246.81;;;8.67;100.00
24230;BME280;12362;50.004;8.006;2023-02-02T08:25:01;101250.47;;;8.60;100.00
24230;BME280;12362;50.004;8.006;2023-02-02T08:28:27;101266.13;;;8.56;100.00
24230;BME280;12362;50.004;8.006;2023-02-02T08:31:50;101275.41;;;8.63;100.00
24230;BME280;12362;50.004;8.006;2023-02-02T08:34:18;101260.94;;;8.56;100.00
24230;BME280;12362;50.004;8.006;2023-02-02T08:36:55;101274.50;;;8.64;100.00
24230;BME280;12362;50.004;8.006;2023-02-02T08:39:36;101274.25;;;8.74;100.00
24230;BME280;12362;50.004;8.006;2023-02-02T08:42:22;101269.88;;;8.75;100.00
24230;BME280;12362;50.004;8.006;2023-02-02T08:55:39;101272.28;;;8.82;100.00
24230;BME280;12362;50.004;8.006;2023-02-02T08:58:25;101266.03;;;8.89;100.00
24230;BME280;12362;50.004;8.006;2023-02-02T09:05:35;101280.31;;;9.02;100.00
24230;BME280;12362;50.004;8.006;2023-02-02T09:08:34;101271.84;;;8.97;100.00
24230;BME280;12362;50.004;8.006;2023-02-02T09:11:11;101270.31;;;8.90;100.00
24230;BME280;12362;50.004;8.006;2023-02-02T09:14:10;101283.25;;;8.90;100.00
24230;BME280;12362;50.004;8.006;2023-02-02T09:23:47;101284.69;;;9.00;100.00
24230;BME280;12362;50.004;8.006;2023-02-02T09:26:50;101287.25;;;9.02;100.00
24230;BME280;12362;50.004;8.006;2023-02-02T09:29:29;101289.66;;;9.07;100.00
24230;BME280;12362;50.004;8.006;2023-02-02T09:33:01;101294.06;;;9.05;100.00
24230;BME280;12362;50.004;8.006;2023-02-02T09:35:22;101291.34;;;9.10;100.00
24230;BME280;12362;50.004;8.006;2023-02-02T09:38:04;101303.44;;;9.09;100.00
24230;BME280;12362;50.004;8.006;2023-02-02T09:40:46;101312.81;;;9.13;100.00
24230;BME280;12362;50.004;8.006;2023-02-02T09:49:53;101313.03;;;9.06;100.00
24230;BME280;12362;50.004;8.006;2023-02-02T09:52:43;101320.66;;;9.10;100.00
24230;BME280;12362;50.004;8.006;2023-02-02T09:55:32;101318.84;;;9.14;100.00
24230;BME280;12362;50.004;8.006;2023-02-02T09:58:24;101326.44;;;9.20;100.00
24230;BME280;12362;50.004;8.006;2023-02-02T10:01:32;101326.44;;;9.20;100.00
24230;BME280;12362;50.004;8.006;2023-02-02T10:04:18;101331.38;;;9.29;100.00
24230;BME280;12362;50.004;8.006;2023-02-02T10:06:50;101337.16;;;9.38;100.00
24230;BME280;12362;50.004;8.006;2023-02-02T10:09:52;101342.50;;;9.32;100.00
24230;BME280;12362;50.004;8.006;2023-02-02T10:12:54;101337.97;;;9.40;100.00
24230;BME280;12362;50.004;8.006;2023-02-02T10:15:36;101337.84;;;9.43;100.00
24230;BME280;12362;50.004;8.006;2023-02-02T10:18:29;101348.06;;;9.49;100.00
24230;BME280;12362;50.004;8.006;2023-02-02T10:21:02;101349.44;;;9.32;100.00
24230;BME280;12362;50.004;8.006;2023-02-02T10:23:39;101346.56;;;9.41;100.00
24230;BME280;12362;50.004;8.006;2023-02-02T10:29:17;101352.69;;;9.38;100.00
24230;BME280;12362;50.004;8.006;2023-02-02T10:34:53;101356.19;;;9.37;100.00
24230;BME280;12362;50.004;8.006;2023-02-02T10:41:22;101361.50;;;9.33;100.00
24230;BME280;12362;50.004;8.006;2023-02-02T10:44:27;101375.84;;;9.44;100.00
24230;BME280;12362;50.004;8.006;2023-02-02T10:46:56;101355.16;;;9.43;100.00
24230;BME280;12362;50.004;8.006;2023-02-02T10:49:40;101364.84;;;9.65;100.00
24230;BME280;12362;50.004;8.006;2023-02-02T10:52:21;101352.31;;;9.79;100.00
24230;BME280;12362;50.004;8.006;2023-02-02T10:55:13;101361.66;;;9.85;100.00
24230;BME280;12362;50.004;8.006;2023-02-02T11:04:28;101350.44;;;9.84;100.00
24230;BME280;12362;50.004;8.006;2023-02-02T11:07:34;101348.81;;;10.09;100.00
24230;BME280;12362;50.004;8.006;2023-02-02T11:10:17;101340.16;;;10.36;100.00
24230;BME280;12362;50.004;8.006;2023-02-02T11:12:47;101349.72;;;10.34;100.00
24230;BME280;12362;50.004;8.006;2023-02-02T11:15:29;101335.59;;;10.42;100.00
24230;BME280;12362;50.004;8.006;2023-02-02T11:18:28;101339.03;;;10.17;100.00
24230;BME280;12362;50.004;8.006;2023-02-02T11:20:55;101343.06;;;9.99;100.00
24230;BME280;12362;50.004;8.006;2023-02-02T11:23:22;101340.53;;;9.96;100.00
24230;BME280;12362;50.004;8.006;2023-02-02T11:26:02;101346.53;;;9.98;100.00
24230;BME280;12362;50.004;8.006;2023-02-02T11:28:36;101351.75;;;9.97;100.00
24230;BME280;12362;50.004;8.006;2023-02-02T11:31:09;101340.09;;;10.11;100.00
24230;BME280;12362;50.004;8.006;2023-02-02T11:33:41;101330.69;;;10.33;100.00
24230;BME280;12362;50.004;8.006;2023-02-02T11:36:26;101338.47;;;10.35;100.00
24230;BME280;12362;50.004;8.006;2023-02-02T11:39:35;101333.53;;;10.52;100.00
24230;BME280;12362;50.004;8.006;2023-02-02T11:42:28;101320.28;;;10.59;100.00
24230;BME280;12362;50.004;8.006;2023-02-02T11:44:58;101326.22;;;10.38;100.00
24230;BME280;12362;50.004;8.006;2023-02-02T11:47:29;101338.81;;;10.49;100.00
24230;BME280;12362;50.004;8.006;2023-02-02T11:53:47;101343.66;;;10.59;100.00
24230;BME280;12362;50.004;8.006;2023-02-02T11:56:19;101352.28;;;10.35;100.00
24230;BME280;12362;50.004;8.006;2023-02-02T11:58:52;101338.94;;;10.20;100.00
24230;BME280;12362;50.004;8.006;2023-02-02T12:05:11;101349.09;;;10.27;100.00
24230;BME280;12362;50.004;8.006;2023-02-02T12:07:54;101337.25;;;10.45;100.00
24230;BME280;12362;50.004;8.006;2023-02-02T12:10:41;101338.94;;;10.46;100.00
24230;BME280;12362;50.004;8.006;2023-02-02T12:13:46;101332.72;;;10.50;100.00
24230;BME280;12362;50.004;8.006;2023-02-02T13:09:40;101339.22;;;10.37;100.00
24230;BME280;12362;50.004;8.006;2023-02-02T13:13:06;101347.88;;;10.37;100.00
24230;BME280;12362;50.004;8.006;2023-02-02T13:15:41;101354.97;;;10.32;100.00
24230;BME280;12362;50.004;8.006;2023-02-02T13:18:26;101354.97;;;10.32;100.00
24230;BME280;12362;50.004;8.006;2023-02-02T13:20:57;101356.88;;;10.27;100.00
24230;BME280;12362;50.004;8.006;2023-02-02T13:23:29;101359.41;;;10.29;100.00
24230;BME280;12362;50.004;8.006;2023-02-02T13:26:02;101362.06;;;10.27;100.00
24230;BME280;12362;50.004;8.006;2023-02-02T13:31:58;101362.22;;;10.23;100.00
24230;BME280;12362;50.004;8.006;2023-02-02T13:35:02;101361.16;;;10.28;100.00
24230;BME280;12362;50.004;8.006;2023-02-02T13:37:48;101356.34;;;10.42;100.00
24230;BME280;12362;50.004;8.006;2023-02-02T13:51:55;101367.69;;;10.40;100.00
24230;BME280;12362;50.004;8.006;2023-02-02T14:01:03;101362.81;;;10.31;100.00
24230;BME280;12362;50.004;8.006;2023-02-02T14:04:03;101362.06;;;10.27;100.00
24230;BME280;12362;50.004;8.006;2023-02-02T14:07:14;101370.91;;;10.22;100.00
24230;BME280;12362;50.004;8.006;2023-02-02T14:09:57;101371.94;;;10.16;100.00
24230;BME280;12362;50.004;8.006;2023-02-02T14:12:30;101371.13;;;10.14;100.00
24230;BME280;12362;50.004;8.006;2023-02-02T14:15:39;101379.47;;;10.24;100.00
24230;BME280;12362;50.004;8.006;2023-02-02T14:18:11;101383.47;;;10.34;100.00
24230;BME280;12362;50.004;8.006;2023-02-02T14:24:38;101390.66;;;10.52;100.00
24230;BME280;12362;50.004;8.006;2023-02-02T14:32:30;101410.34;;;10.33;100.00
24230;BME280;12362;50.004;8.006;2023-02-02T14:35:53;101407.75;;;10.31;100.00
24230;BME280;12362;50.004;8.006;2023-02-02T14:40:29;101400.88;;;10.30;100.00
24230;BME280;12362;50.004;8.006;2023-02-02T14:43:15;101401.03;;;10.26;100.00
24230;BME280;12362;50.004;8.006;2023-02-02T14:46:32;101416.72;;;10.23;100.00
24230;BME280;12362;50.004;8.006;2023-02-02T14:49:37;101419.34;;;10.21;100.00
24230;BME280;12362;50.004;8.006;2023-02-02T14:53:06;101424.72;;;10.15;100.00
24230;BME280;12362;50.004;8.006;2023-02-02T14:55:49;101434.38;;;10.10;100.00
24230;BME280;12362;50.004;8.006;2023-02-02T15:01:39;101450.19;;;10.03;100.00
24230;BME280;12362;50.004;8.006;2023-02-02T15:04:25;101451.84;;;10.05;100.00
24230;BME280;12362;50.004;8.006;2023-02-02T15:07:52;101445.00;;;10.03;100.00
24230;BME280;12362;50.004;8.006;2023-02-02T15:13:44;101460.69;;;10.00;100.00
24230;BME280;12362;50.004;8.006;2023-02-02T15:16:27;101459.59;;;10.07;100.00
24230;BME280;12362;50.004;8.006;2023-02-02T15:19:10;101467.50;;;10.02;100.00
24230;BME280;12362;50.004;8.006;2023-02-02T15:21:47;101464.72;;;10.08;100.00
24230;BME280;12362;50.004;8.006;2023-02-02T15:24:29;101461.00;;;10.17;100.00
24230;BME280;12362;50.004;8.006;2023-02-02T15:27:19;101466.13;;;10.20;100.00
24230;BME280;12362;50.004;8.006;2023-02-02T15:29:56;101477.44;;;10.17;100.00
24230;BME280;12362;50.004;8.006;2023-02-02T15:32:37;101465.38;;;10.15;100.00
24230;BME280;12362;50.004;8.006;2023-02-02T15:35:10;101472.34;;;10.14;100.00
24230;BME280;12362;50.004;8.006;2023-02-02T15:37:55;101479.16;;;10.18;100.00
24230;BME280;12362;50.004;8.006;2023-02-02T15:40:32;101474.06;;;10.14;100.00
24230;BME280;12362;50.004;8.006;2023-02-02T15:43:06;101481.91;;;10.12;100.00
24230;BME280;12362;50.004;8.006;2023-02-02T15:45:45;101481.16;;;10.09;100.00
24230;BME280;12362;50.004;8.006;2023-02-02T15:48:29;101485.44;;;10.10;100.00
24230;BME280;12362;50.004;8.006;2023-02-02T15:51:12;101482.13;;;10.05;100.00
24230;BME280;12362;50.004;8.006;2023-02-02T16:00:59;101478.91;;;9.95;100.00
24230;BME280;12362;50.004;8.006;2023-02-02T16:06:38;101486.66;;;9.97;100.00
24230;BME280;12362;50.004;8.006;2023-02-02T16:09:34;101488.41;;;9.96;100.00
24230;BME280;12362;50.004;8.006;2023-02-02T16:12:39;101489.41;;;9.91;100.00
24230;BME280;12362;50.004;8.006;2023-02-02T16:15:52;101514.00;;;9.78;100.00
24230;BME280;12362;50.004;8.006;2023-02-02T16:18:30;101516.50;;;9.81;100.00
24230;BME280;12362;50.004;8.006;2023-02-02T16:21:14;101513.97;;;9.80;100.00
24230;BME280;12362;50.004;8.006;2023-02-02T16:23:59;101515.69;;;9.79;100.00
24230;BME280;12362;50.004;8.006;2023-02-02T16:26:30;101519.38;;;9.72;100.00
24230;BME280;12362;50.004;8.006;2023-02-02T16:29:59;101515.75;;;9.78;100.00
24230;BME280;12362;50.004;8.006;2023-02-02T16:32:52;101510.78;;;9.70;100.00
24230;BME280;12362;50.004;8.006;2023-02-02T16:35:37;101528.97;;;9.69;100.00
24230;BME280;12362;50.004;8.006;2023-02-02T16:38:14;101531.38;;;9.76;100.00
24230;BME280;12362;50.004;8.006;2023-02-02T16:40:48;101528.81;;;9.75;100.00
24230;BME280;12362;50.004;8.006;2023-02-02T16:43:41;101535.97;;;9.65;100.00
24230;BME280;12362;50.004;8.006;2023-02-02T16:46:40;101543.34;;;9.80;100.00
24230;BME280;12362;50.004;8.006;2023-02-02T16:49:15;101552.13;;;9.76;100.00
24230;BME280;12362;50.004;8.006;2023-02-02T16:52:14;101547.16;;;9.67;100.00
24230;BME280;12362;50.004;8.006;2023-02-02T16:54:54;101546.19;;;9.71;100.00